Time;durP1;ratioP1;P1;durP2;ratioP2;P2;SDS_P1;SDS_P2;PMS_P1;PMS_P2;Temp;Humidity;BMP_temperature;BMP_pressure;BME280_temperature;BME280_humidity;BME280_pressure;Samples;Min_cycle;Max_cycle;Signal;HPM_P1;HPM_P2
2022/02/18 00:00:50;;;;;;;13.48;6.90;;;256.70;2252.80;;;;;;4880043;29;20159;-83
2022/02/18 00:03:16;;;;;;;11.95;6.45;;;281.60;2278.40;;;;;;4879622;29;20104;-83
2022/02/18 00:05:44;;;;;;;19.33;8.30;;;281.80;2278.40;;;;;;4879979;29;20036;-82
2022/02/18 00:08:10;;;;;;;19.13;8.90;;;281.90;2278.40;;;;;;4879832;29;20025;-83
2022/02/18 00:10:37;;;;;;;19.48;9.25;;;282.00;2278.40;;;;;;4879736;29;20024;-84
2022/02/18 00:13:03;;;;;;;18.38;10.13;;;282.10;2278.40;;;;;;4879984;29;20028;-81
2022/02/18 00:15:29;;;;;;;18.77;8.88;;;282.10;2278.40;;;;;;4879863;29;20466;-81
2022/02/18 00:17:55;;;;;;;13.90;8.27;;;282.20;2278.40;;;;;;4879428;29;20110;-82
2022/02/18 00:20:21;;;;;;;15.10;8.35;;;282.20;2278.40;;;;;;4864340;29;20032;-82
2022/02/18 00:22:48;;;;;;;16.23;8.52;;;282.20;2278.40;;;;;;4879743;29;20024;-83
2022/02/18 00:25:15;;;;;;;13.95;8.65;;;282.20;2278.40;;;;;;4879701;29;20029;-80
2022/02/18 00:27:41;;;;;;;16.02;8.73;;;256.90;2252.80;;;;;;4879611;29;20025;-82
2022/02/18 00:30:22;;;;;;;15.52;8.63;;;282.30;2278.40;;;;;;4879559;29;20057;-81
2022/02/18 00:33:01;;;;;;;16.23;9.55;;;282.20;2278.40;;;;;;4879122;29;20024;-82
2022/02/18 00:35:30;;;;;;;18.45;10.00;;;282.20;2278.40;;;;;;4894952;29;20421;-82
2022/02/18 00:37:56;;;;;;;18.48;10.63;;;282.20;2278.40;;;;;;4880232;29;20049;-78
2022/02/18 00:40:24;;;;;;;18.23;11.52;;;282.20;2278.40;;;;;;4879355;29;20033;-80
2022/02/18 00:43:25;;;;;;;18.13;10.05;;;282.20;2278.40;;;;;;5173460;27;20571;-75
2022/02/18 00:45:51;;;;;;;16.73;9.50;;;282.20;2278.40;;;;;;5152843;27;20343;-75
2022/02/18 00:48:17;;;;;;;17.75;8.35;;;282.20;2278.40;;;;;;5134232;27;20019;-75
2022/02/18 00:50:43;;;;;;;14.18;9.45;;;282.20;2278.40;;;;;;5152396;27;20015;-76
2022/02/18 00:53:08;;;;;;;14.70;8.00;;;282.10;2278.40;;;;;;5133963;27;20030;-76
2022/02/18 00:55:34;;;;;;;11.02;7.05;;;282.10;2278.40;;;;;;5134019;27;20434;-76
2022/02/18 00:58:00;;;;;;;13.70;7.55;;;282.10;2278.40;;;;;;5134109;27;20103;-75
2022/02/18 01:00:26;;;;;;;14.75;7.18;;;282.00;2278.40;;;;;;5152249;27;20506;-75
2022/02/18 01:02:51;;;;;;;12.65;6.38;;;282.00;2278.40;;;;;;5133831;27;20026;-75
2022/02/18 01:05:17;;;;;;;11.18;5.40;;;282.00;2278.40;;;;;;5133903;27;20074;-76
2022/02/18 01:07:44;;;;;;;12.45;7.05;;;281.90;2278.40;;;;;;5133513;27;20027;-75
2022/02/18 01:10:11;;;;;;;18.23;8.70;;;282.00;2278.40;;;;;;5133827;27;20090;-75
2022/02/18 01:12:37;;;;;;;13.73;7.68;;;281.90;2278.40;;;;;;5133736;27;20029;-76
2022/02/18 01:15:04;;;;;;;15.05;7.90;;;281.90;2278.40;;;;;;5133417;27;20114;-75
2022/02/18 01:17:30;;;;;;;16.15;8.38;;;281.90;2278.40;;;;;;5133628;27;20469;-75
2022/02/18 01:19:56;;;;;;;19.88;8.73;;;281.90;2278.40;;;;;;5151821;27;20042;-75
2022/02/18 01:22:22;;;;;;;14.65;6.25;;;282.00;2278.40;;;;;;5133494;27;20370;-76
2022/02/18 01:24:48;;;;;;;14.85;6.95;;;282.00;2278.40;;;;;;5133510;27;20118;-76
2022/02/18 01:27:14;;;;;;;17.23;5.78;;;282.00;2278.40;;;;;;5151732;27;20518;-76
2022/02/18 01:29:40;;;;;;;13.45;4.55;;;282.00;2278.40;;;;;;5133437;27;20027;-76
2022/02/18 01:32:11;;;;;;;14.30;4.78;;;281.90;2278.40;;;;;;5133433;27;20033;-78
2022/02/18 01:34:38;;;;;;;14.10;5.13;;;282.00;2278.40;;;;;;5133100;27;20023;-76
2022/02/18 01:37:05;;;;;;;16.05;6.72;;;282.00;2278.40;;;;;;5133271;27;20023;-76
2022/02/18 01:39:31;;;;;;;14.48;6.05;;;282.00;2278.40;;;;;;5133198;27;20027;-75
2022/02/18 01:41:57;;;;;;;16.25;5.82;;;281.90;2278.40;;;;;;5132533;27;20047;-76
2022/02/18 01:44:39;;;;;;;12.32;6.10;;;281.90;2278.40;;;;;;5151810;27;20027;-76
2022/02/18 01:47:10;;;;;;;12.20;5.03;;;281.90;2278.40;;;;;;5133015;27;20015;-76
2022/02/18 01:49:36;;;;;;;18.10;4.95;;;281.90;2278.40;;;;;;5132814;27;20015;-76
2022/02/18 01:52:02;;;;;;;9.68;5.13;;;281.80;2278.40;;;;;;5151506;27;20075;-76
2022/02/18 01:54:28;;;;;;;9.40;3.40;;;281.70;2278.40;;;;;;5120422;27;20029;-76
2022/02/18 01:56:54;;;;;;;8.20;3.50;;;281.70;2278.40;;;;;;5118841;27;20110;-76
2022/02/18 01:59:20;;;;;;;5.90;3.15;;;281.60;2278.40;;;;;;5119445;27;20019;-76
2022/02/18 02:01:46;;;;;;;5.50;3.05;;;256.90;2252.80;;;;;;5119051;27;20046;-76
2022/02/18 02:04:12;;;;;;;8.15;3.33;;;256.60;2252.80;;;;;;5137536;27;20155;-75
2022/02/18 02:06:39;;;;;;;5.07;2.58;;;256.30;2252.80;;;;;;5137476;27;20061;-76
2022/02/18 02:09:05;;;;;;;6.20;3.38;;;256.20;2252.80;;;;;;5137150;27;20022;-77
2022/02/18 02:11:30;;;;;;;5.72;3.17;;;256.20;2252.80;;;;;;5118675;27;20019;-77
2022/02/18 02:14:03;;;;;;;6.90;3.70;;;256.10;2252.80;;;;;;5137132;27;20098;-78
2022/02/18 02:16:28;;;;;;;5.40;2.78;;;231.30;2252.80;;;;;;5118603;27;20370;-76
2022/02/18 02:18:54;;;;;;;4.55;2.28;;;231.10;2252.80;;;;;;5137233;27;20023;-77
2022/02/18 02:21:22;;;;;;;5.22;2.22;;;231.00;2252.80;;;;;;5118642;27;20365;-77
2022/02/18 02:23:48;;;;;;;4.60;2.42;;;230.90;2252.80;;;;;;5118507;27;20019;-78
2022/02/18 02:26:15;;;;;;;3.95;2.25;;;230.70;2252.80;;;;;;5118617;27;20468;-77
2022/02/18 02:28:41;;;;;;;4.30;2.00;;;230.60;2252.80;;;;;;5136742;27;20025;-77
2022/02/18 02:31:07;;;;;;;4.10;1.77;;;230.50;2252.80;;;;;;5118298;27;20058;-77
2022/02/18 02:33:33;;;;;;;4.40;1.90;;;230.50;2252.80;;;;;;5118486;27;20423;-78
2022/02/18 02:35:59;;;;;;;4.70;2.10;;;230.40;2252.80;;;;;;5136593;27;20019;-77
2022/02/18 02:38:25;;;;;;;4.53;2.10;;;205.70;2252.80;;;;;;5118143;27;20452;-78
2022/02/18 02:40:51;;;;;;;5.80;2.30;;;205.70;2252.80;;;;;;5118426;27;20023;-77
2022/02/18 02:43:17;;;;;;;5.47;2.42;;;205.70;2252.80;;;;;;5118243;27;20050;-77
2022/02/18 02:45:43;;;;;;;5.57;2.85;;;205.70;2252.80;;;;;;5136451;27;20022;-76
2022/02/18 02:48:09;;;;;;;11.15;5.82;;;230.40;2252.80;;;;;;5118203;27;20051;-77
2022/02/18 02:50:35;;;;;;;14.25;7.30;;;205.70;2252.80;;;;;;5136263;27;20047;-78
2022/02/18 02:53:00;;;;;;;5.03;2.20;;;205.70;2252.80;;;;;;5117565;27;20076;-78
2022/02/18 02:55:27;;;;;;;6.95;2.63;;;230.40;2252.80;;;;;;5118024;27;20023;-77
2022/02/18 02:57:52;;;;;;;4.93;1.75;;;230.50;2252.80;;;;;;5117739;27;20067;-76
2022/02/18 03:00:19;;;;;;;4.90;2.22;;;230.50;2252.80;;;;;;5117678;27;20019;-77
2022/02/18 03:02:45;;;;;;;5.43;2.20;;;230.60;2252.80;;;;;;5117844;27;20034;-76
2022/02/18 03:05:12;;;;;;;5.82;3.17;;;230.40;2252.80;;;;;;5116571;27;20031;-77
2022/02/18 03:07:38;;;;;;;5.60;2.97;;;230.70;2252.80;;;;;;5117933;27;20053;-76
2022/02/18 03:10:05;;;;;;;4.03;1.73;;;230.60;2252.80;;;;;;5117734;27;20407;-76
2022/02/18 03:12:30;;;;;;;5.88;2.42;;;230.60;2252.80;;;;;;5117427;27;20111;-77
2022/02/18 03:14:56;;;;;;;5.30;2.17;;;230.60;2252.80;;;;;;5117720;27;20047;-76
2022/02/18 03:17:22;;;;;;;5.88;2.65;;;230.50;2252.80;;;;;;5136146;27;20466;-77
2022/02/18 03:19:48;;;;;;;4.60;2.33;;;230.50;2252.80;;;;;;5117286;27;20114;-77
2022/02/18 03:22:14;;;;;;;4.28;2.22;;;230.50;2252.80;;;;;;5135882;27;20034;-77
2022/02/18 03:24:40;;;;;;;6.68;2.92;;;230.50;2252.80;;;;;;5117511;27;20118;-76
2022/02/18 03:27:06;;;;;;;5.47;2.55;;;230.40;2252.80;;;;;;5135250;27;20027;-77
2022/02/18 03:29:32;;;;;;;6.30;3.20;;;230.40;2252.80;;;;;;5117465;27;20023;-77
2022/02/18 03:31:57;;;;;;;4.30;1.70;;;205.70;2252.80;;;;;;5135515;27;20023;-76
2022/02/18 03:34:23;;;;;;;5.75;2.40;;;205.60;2252.80;;;;;;5117012;27;20020;-77
2022/02/18 03:36:49;;;;;;;4.80;2.10;;;205.60;2252.80;;;;;;5135374;27;20023;-76
2022/02/18 03:39:15;;;;;;;12.55;4.35;;;205.50;2252.80;;;;;;5117184;27;20102;-77
2022/02/18 03:41:40;;;;;;;8.30;3.95;;;205.60;2252.80;;;;;;5134869;27;20058;-77
2022/02/18 03:44:06;;;;;;;10.15;3.70;;;205.50;2252.80;;;;;;5117076;27;20027;-78
2022/02/18 03:46:33;;;;;;;8.20;2.40;;;205.50;2252.80;;;;;;5117082;27;20113;-77
2022/02/18 03:48:59;;;;;;;5.95;2.65;;;205.50;2252.80;;;;;;5135425;27;20023;-77
2022/02/18 03:51:25;;;;;;;8.57;4.15;;;205.40;2252.80;;;;;;5135492;27;20015;-77
2022/02/18 03:53:51;;;;;;;4.65;1.75;;;205.40;2252.80;;;;;;5126238;27;20019;-76
2022/02/18 03:56:18;;;;;;;9.13;3.20;;;205.40;2252.80;;;;;;5121967;27;20023;-77
2022/02/18 03:58:44;;;;;;;6.90;2.60;;;205.30;2252.80;;;;;;5117053;27;20454;-78
2022/02/18 04:01:10;;;;;;;11.02;4.72;;;205.50;2252.80;;;;;;5117270;27;20027;-78
2022/02/18 04:03:36;;;;;;;15.88;7.05;;;205.30;2252.80;;;;;;5116883;27;20019;-78
2022/02/18 04:06:01;;;;;;;9.45;3.30;;;205.30;2252.80;;;;;;5116717;27;20106;-76
2022/02/18 04:08:27;;;;;;;7.50;3.55;;;205.20;2252.80;;;;;;5116380;27;20047;-77
2022/02/18 04:10:53;;;;;;;9.38;4.68;;;205.20;2252.80;;;;;;5116601;27;20095;-76
2022/02/18 04:13:19;;;;;;;12.48;4.18;;;205.20;2252.80;;;;;;5134780;27;20019;-77
2022/02/18 04:15:45;;;;;;;7.97;3.10;;;205.10;2252.80;;;;;;5116229;27;20458;-77
2022/02/18 04:18:10;;;;;;;7.88;2.15;;;205.10;2252.80;;;;;;5116498;27;20030;-75
2022/02/18 04:20:36;;;;;;;7.30;2.60;;;205.00;2252.80;;;;;;5116461;27;20023;-77
2022/02/18 04:23:02;;;;;;;7.95;3.28;;;205.10;2252.80;;;;;;5134522;27;20027;-77
2022/02/18 04:25:28;;;;;;;6.95;3.17;;;205.10;2252.80;;;;;;5116520;27;20152;-77
2022/02/18 04:27:55;;;;;;;8.23;3.33;;;205.10;2252.80;;;;;;5116430;27;20036;-77
2022/02/18 04:30:21;;;;;;;9.07;3.00;;;205.10;2252.80;;;;;;5116080;28;20019;-77
2022/02/18 04:32:48;;;;;;;9.63;4.15;;;205.10;2252.80;;;;;;5116394;27;20398;-76
2022/02/18 04:35:14;;;;;;;7.85;3.63;;;205.10;2252.80;;;;;;5134703;27;20053;-78
2022/02/18 04:37:40;;;;;;;9.05;3.70;;;205.10;2252.80;;;;;;5134747;27;20396;-77
2022/02/18 04:40:07;;;;;;;7.55;3.17;;;205.10;2252.80;;;;;;5116445;28;20019;-76
2022/02/18 04:42:33;;;;;;;10.95;5.00;;;205.00;2252.80;;;;;;5115938;28;20047;-78
2022/02/18 04:44:59;;;;;;;12.20;5.15;;;205.10;2252.80;;;;;;5116091;28;20435;-76
2022/02/18 04:47:24;;;;;;;10.25;5.05;;;205.00;2252.80;;;;;;5134664;27;20050;-76
2022/02/18 04:49:50;;;;;;;14.20;8.05;;;205.00;2252.80;;;;;;5116006;28;20110;-75
2022/02/18 04:52:16;;;;;;;10.10;5.88;;;205.10;2252.80;;;;;;5134638;28;20031;-77
2022/02/18 04:54:43;;;;;;;16.70;7.20;;;205.10;2252.80;;;;;;5116209;28;20110;-76
2022/02/18 04:57:08;;;;;;;14.00;6.20;;;205.10;2252.80;;;;;;5115937;28;20064;-77
2022/02/18 04:59:34;;;;;;;18.20;8.05;;;205.10;2252.80;;;;;;5134842;28;20454;-77
2022/02/18 05:02:00;;;;;;;10.27;4.60;;;205.10;2252.80;;;;;;5116005;28;20141;-76
2022/02/18 05:04:26;;;;;;;8.80;4.63;;;205.10;2252.80;;;;;;5115793;28;20103;-76
2022/02/18 05:06:52;;;;;;;9.40;4.25;;;205.10;2252.80;;;;;;5116061;28;20026;-76
2022/02/18 05:09:18;;;;;;;9.43;5.20;;;205.10;2252.80;;;;;;5116005;28;20106;-76
2022/02/18 05:11:43;;;;;;;9.63;4.28;;;205.10;2252.80;;;;;;5115713;28;20446;-77
2022/02/18 05:14:09;;;;;;;13.98;5.85;;;205.10;2252.80;;;;;;5116029;28;20019;-77
2022/02/18 05:16:35;;;;;;;12.48;5.43;;;205.10;2252.80;;;;;;5115993;28;20098;-77
2022/02/18 05:19:02;;;;;;;8.57;4.47;;;205.10;2252.80;;;;;;5115616;28;20363;-77
2022/02/18 05:21:28;;;;;;;9.30;5.10;;;205.10;2252.80;;;;;;5115948;28;20090;-77
2022/02/18 05:23:53;;;;;;;12.95;4.43;;;205.10;2252.80;;;;;;5115930;28;20046;-78
2022/02/18 05:26:19;;;;;;;9.25;5.15;;;205.10;2252.80;;;;;;5115550;28;20090;-78
2022/02/18 05:28:45;;;;;;;13.60;6.75;;;205.00;2252.80;;;;;;5135826;27;20019;-77
2022/02/18 05:31:11;;;;;;;9.07;3.72;;;205.00;2252.80;;;;;;5138174;27;20023;-76
2022/02/18 05:33:37;;;;;;;10.90;5.20;;;204.90;2252.80;;;;;;5119332;27;20042;-76
2022/02/18 05:36:03;;;;;;;10.82;4.45;;;204.90;2252.80;;;;;;5137716;27;20105;-78
2022/02/18 05:38:29;;;;;;;8.57;4.20;;;204.80;2252.80;;;;;;5119622;27;20019;-76
2022/02/18 05:40:55;;;;;;;11.00;4.78;;;204.90;2252.80;;;;;;5137755;27;20030;-76
2022/02/18 05:43:21;;;;;;;10.82;5.65;;;204.90;2252.80;;;;;;5119011;27;20390;-78
2022/02/18 05:45:47;;;;;;;8.85;4.85;;;204.90;2252.80;;;;;;5137646;27;20043;-76
2022/02/18 05:48:13;;;;;;;15.18;7.45;;;204.90;2252.80;;;;;;5119081;27;20171;-78
2022/02/18 05:50:39;;;;;;;19.73;12.10;;;205.00;2252.80;;;;;;5119503;27;20026;-75
2022/02/18 05:53:05;;;;;;;18.30;10.73;;;205.00;2252.80;;;;;;5119065;27;20050;-76
2022/02/18 05:55:30;;;;;;;15.93;9.13;;;205.00;2252.80;;;;;;5137709;27;20018;-77
2022/02/18 05:57:56;;;;;;;11.07;6.97;;;205.10;2252.80;;;;;;5119272;27;20053;-77
2022/02/18 06:00:22;;;;;;;17.55;8.25;;;205.00;2252.80;;;;;;5118859;27;20023;-76
2022/02/18 06:02:48;;;;;;;17.92;9.30;;;205.00;2252.80;;;;;;5119195;27;20046;-76
2022/02/18 06:05:14;;;;;;;13.77;6.75;;;205.10;2252.80;;;;;;5118994;27;20446;-76
2022/02/18 06:07:43;;;;;;;9.07;5.30;;;205.10;2252.80;;;;;;5137182;27;20022;-76
2022/02/18 06:10:09;;;;;;;12.93;7.03;;;205.10;2252.80;;;;;;5137193;27;20481;-76
2022/02/18 06:12:35;;;;;;;11.55;6.30;;;205.10;2252.80;;;;;;5118950;27;20461;-76
2022/02/18 06:15:01;;;;;;;9.82;6.90;;;205.10;2252.80;;;;;;5137329;27;20054;-77
2022/02/18 06:17:27;;;;;;;13.40;7.40;;;205.20;2252.80;;;;;;5118884;27;20022;-75
2022/02/18 06:19:53;;;;;;;12.60;5.72;;;205.20;2252.80;;;;;;5118801;27;20055;-77
2022/02/18 06:22:19;;;;;;;16.17;9.60;;;205.20;2252.80;;;;;;5118313;27;20473;-76
2022/02/18 06:24:44;;;;;;;19.75;11.90;;;205.20;2252.80;;;;;;5118604;27;20034;-76
2022/02/18 06:27:10;;;;;;;11.63;7.28;;;205.20;2252.80;;;;;;5118592;27;20026;-79
2022/02/18 06:29:36;;;;;;;16.65;9.18;;;205.30;2252.80;;;;;;5136483;27;20030;-79
2022/02/18 06:32:03;;;;;;;21.27;12.43;;;205.30;2252.80;;;;;;5118622;27;20027;-77
2022/02/18 06:34:29;;;;;;;19.10;10.70;;;205.30;2252.80;;;;;;5136961;27;20015;-79
2022/02/18 06:36:55;;;;;;;17.17;9.48;;;205.40;2252.80;;;;;;5118215;27;20061;-79
2022/02/18 06:39:22;;;;;;;22.30;12.63;;;205.50;2252.80;;;;;;5136777;27;20047;-77
2022/02/18 06:41:49;;;;;;;18.98;9.07;;;205.50;2252.80;;;;;;5136354;27;20047;-78
2022/02/18 06:44:15;;;;;;;15.68;9.10;;;205.60;2252.80;;;;;;5118214;27;20023;-78
2022/02/18 06:46:42;;;;;;;24.15;12.25;;;205.60;2252.80;;;;;;5118328;27;20023;-79
2022/02/18 06:49:08;;;;;;;18.48;10.75;;;205.70;2252.80;;;;;;5118195;27;20447;-78
2022/02/18 06:51:34;;;;;;;22.48;15.13;;;205.70;2252.80;;;;;;5118167;27;20034;-78
2022/02/18 06:54:00;;;;;;;14.70;8.70;;;205.70;2252.80;;;;;;5118144;27;20023;-76
2022/02/18 06:56:26;;;;;;;37.20;18.42;;;230.40;2252.80;;;;;;5117743;27;20110;-77
2022/02/18 06:58:54;;;;;;;38.13;19.05;;;230.40;2252.80;;;;;;5118000;27;20111;-79
2022/02/18 07:01:21;;;;;;;24.85;13.65;;;230.50;2252.80;;;;;;5136326;27;20051;-79
2022/02/18 07:03:47;;;;;;;17.77;10.52;;;230.50;2252.80;;;;;;5117564;27;20476;-77
2022/02/18 07:06:13;;;;;;;20.17;12.85;;;230.50;2252.80;;;;;;5117781;27;20101;-78
2022/02/18 07:08:38;;;;;;;17.95;9.93;;;230.60;2252.80;;;;;;5117744;27;20030;-78
2022/02/18 07:11:04;;;;;;;20.73;12.13;;;230.60;2252.80;;;;;;5135982;27;20103;-77
2022/02/18 07:13:30;;;;;;;21.40;12.90;;;230.70;2252.80;;;;;;5117966;27;20336;-78
2022/02/18 07:15:56;;;;;;;16.65;8.77;;;230.80;2252.80;;;;;;5136084;27;20023;-80
2022/02/18 07:18:23;;;;;;;16.23;9.23;;;230.80;2252.80;;;;;;5117293;27;20121;-78
2022/02/18 07:20:49;;;;;;;11.80;6.55;;;230.80;2252.80;;;;;;5117437;27;20065;-79
2022/02/18 07:23:16;;;;;;;14.88;8.55;;;230.90;2252.80;;;;;;5117447;27;20027;-78
2022/02/18 07:25:44;;;;;;;14.50;7.53;;;230.90;2227.20;;;;;;5117218;27;20023;-79
2022/02/18 07:28:10;;;;;;;15.52;9.82;;;230.90;2227.20;;;;;;5117409;27;20027;-79
2022/02/18 07:30:35;;;;;;;5.45;3.55;;;231.00;2227.20;;;;;;5135790;27;20098;-78
2022/02/18 07:33:01;;;;;;;9.98;5.22;;;231.10;2150.40;;;;;;5116940;27;20026;-75
2022/02/18 07:35:32;;;;;;;14.50;7.55;;;231.10;2176.00;;;;;;5135632;27;20443;-79
2022/02/18 07:38:02;;;;;;;11.93;5.88;;;231.20;2176.00;;;;;;5117021;27;20026;-79
2022/02/18 07:40:28;;;;;;;32.33;21.08;;;231.20;2176.00;;;;;;5117306;27;20037;-79
2022/02/18 07:42:55;;;;;;;24.20;13.82;;;231.30;2150.40;;;;;;5116861;27;20535;-79
2022/02/18 07:45:21;;;;;;;20.30;13.00;;;231.10;2124.80;;;;;;5134994;27;20019;-79
2022/02/18 07:47:52;;;;;;;19.88;10.68;;;231.30;2124.80;;;;;;5117091;27;20050;-76
2022/02/18 07:50:20;;;;;;;9.75;5.85;;;256.00;2124.80;;;;;;5116690;27;20015;-79
2022/02/18 07:52:46;;;;;;;15.70;8.93;;;256.10;2099.20;;;;;;5134648;27;20023;-76
2022/02/18 07:55:11;;;;;;;14.57;9.27;;;256.10;2099.20;;;;;;5116964;27;20083;-77
2022/02/18 07:57:37;;;;;;;9.48;6.13;;;256.20;2073.60;;;;;;5116819;27;20019;-76
2022/02/18 08:00:05;;;;;;;9.35;5.55;;;256.20;2048.00;;;;;;5116590;27;20404;-76
2022/02/18 08:02:31;;;;;;;9.77;5.63;;;256.20;2048.00;;;;;;5116734;27;20033;-76
2022/02/18 08:04:57;;;;;;;17.58;6.97;;;256.40;2048.00;;;;;;5116795;27;20049;-77
2022/02/18 08:07:23;;;;;;;14.55;5.95;;;256.40;2048.00;;;;;;5116438;27;20462;-78
2022/02/18 08:09:49;;;;;;;10.52;5.40;;;256.50;2022.40;;;;;;5116618;27;20063;-79
2022/02/18 08:12:15;;;;;;;8.82;4.97;;;256.50;2022.40;;;;;;5135155;27;20079;-79
2022/02/18 08:14:41;;;;;;;11.98;6.03;;;256.60;2022.40;;;;;;5134670;27;20023;-75
2022/02/18 08:17:07;;;;;;;12.32;5.75;;;256.70;1996.80;;;;;;5135067;27;20443;-76
2022/02/18 08:19:33;;;;;;;13.23;4.90;;;256.70;1996.80;;;;;;5134695;27;20144;-77
2022/02/18 08:22:02;;;;;;;10.63;6.00;;;256.80;1971.20;;;;;;5116139;27;20031;-76
2022/02/18 08:24:27;;;;;;;10.07;4.28;;;256.80;1945.60;;;;;;5134707;27;20058;-76
2022/02/18 08:26:53;;;;;;;8.93;3.35;;;256.80;1945.60;;;;;;5116126;27;20374;-75
2022/02/18 08:29:23;;;;;;;12.45;4.60;;;256.80;1971.20;;;;;;5134866;27;20098;-75
2022/02/18 08:31:54;;;;;;;9.15;4.57;;;256.80;1945.60;;;;;;5116403;27;20023;-77
2022/02/18 08:34:20;;;;;;;14.25;6.20;;;256.90;1945.60;;;;;;5116100;28;20105;-75
2022/02/18 08:36:46;;;;;;;13.38;5.75;;;256.80;1920.00;;;;;;5116380;27;20331;-75
2022/02/18 08:39:12;;;;;;;15.00;5.30;;;256.90;1920.00;;;;;;5134745;27;20023;-76
2022/02/18 08:41:38;;;;;;;20.10;8.32;;;281.60;1945.60;;;;;;5115657;28;20046;-75
2022/02/18 08:44:04;;;;;;;9.35;3.90;;;281.70;1945.60;;;;;;5116288;28;20110;-74
2022/02/18 08:46:31;;;;;;;9.30;3.97;;;281.70;1920.00;;;;;;5134390;28;20522;-77
2022/02/18 08:48:58;;;;;;;10.10;3.10;;;281.70;1920.00;;;;;;5115897;28;20103;-76
2022/02/18 08:51:25;;;;;;;12.98;9.90;;;281.80;1920.00;;;;;;5134933;27;20047;-78
2022/02/18 08:53:51;;;;;;;15.15;6.50;;;281.90;1894.40;;;;;;5116305;28;20114;-77
2022/02/18 08:56:17;;;;;;;8.10;3.25;;;281.90;1894.40;;;;;;5116006;28;20054;-78
2022/02/18 08:58:44;;;;;;;13.93;4.38;;;282.00;1843.20;;;;;;5134943;28;20027;-79
2022/02/18 09:01:10;;;;;;;9.38;4.88;;;282.00;1843.20;;;;;;5116250;28;20026;-79
2022/02/18 09:03:36;;;;;;;13.77;6.25;;;282.10;1843.20;;;;;;5116806;28;20035;-77
2022/02/18 09:06:02;;;;;;;7.63;4.13;;;282.10;1868.80;;;;;;5138427;27;20023;-77
2022/02/18 09:08:28;;;;;;;9.93;5.85;;;282.10;1843.20;;;;;;5138416;27;20019;-77
2022/02/18 09:10:55;;;;;;;10.60;2.70;;;282.20;1843.20;;;;;;5138274;27;20031;-77
2022/02/18 09:13:24;;;;;;;7.35;2.17;;;282.20;1843.20;;;;;;5138554;27;20023;-76
2022/02/18 09:15:50;;;;;;;8.10;3.25;;;282.20;1843.20;;;;;;5119842;27;20026;-76
2022/02/18 09:18:17;;;;;;;8.85;3.60;;;282.20;1843.20;;;;;;5120066;27;20030;-77
2022/02/18 09:20:48;;;;;;;10.93;4.32;;;282.20;1843.20;;;;;;5138698;27;20026;-78
2022/02/18 09:23:14;;;;;;;18.17;12.43;;;282.40;1843.20;;;;;;5119510;27;20031;-76
2022/02/18 09:25:40;;;;;;;12.70;7.32;;;282.40;1817.60;;;;;;5138337;27;20051;-78
2022/02/18 09:28:07;;;;;;;13.82;6.90;;;307.20;1817.60;;;;;;5119975;27;20046;-78
2022/02/18 09:30:36;;;;;;;20.25;13.55;;;307.30;1817.60;;;;;;5137936;27;20023;-78
2022/02/18 09:33:02;;;;;;;19.25;10.15;;;307.40;1817.60;;;;;;5138233;27;20023;-78
2022/02/18 09:35:28;;;;;;;19.10;10.48;;;307.50;1792.00;;;;;;5137875;27;20366;-78
2022/02/18 09:37:54;;;;;;;15.48;8.05;;;307.60;1817.60;;;;;;5119335;27;20159;-77
2022/02/18 09:40:20;;;;;;;17.20;10.13;;;307.60;1792.00;;;;;;5119617;27;20523;-80
2022/02/18 09:42:47;;;;;;;17.40;9.65;;;307.70;1792.00;;;;;;5119248;27;20061;-78
2022/02/18 09:45:15;;;;;;;10.07;4.93;;;307.70;1792.00;;;;;;5119192;27;20022;-78
2022/02/18 09:47:41;;;;;;;13.93;6.15;;;307.70;1766.40;;;;;;5119498;27;20016;-77
2022/02/18 09:50:08;;;;;;;22.70;10.05;;;307.80;1740.80;;;;;;5119329;27;20696;-77
2022/02/18 09:52:34;;;;;;;19.23;8.95;;;307.90;1740.80;;;;;;5119091;27;20113;-81
2022/02/18 09:55:00;;;;;;;24.48;15.10;;;308.00;1664.00;;;;;;5138091;27;20030;-78
2022/02/18 09:57:28;;;;;;;5.85;2.55;;;308.00;1664.00;;;;;;5119285;27;20428;-78
2022/02/18 09:59:54;;;;;;;15.20;7.75;;;308.00;1638.40;;;;;;5119038;27;20118;-77
2022/02/18 10:02:21;;;;;;;23.00;12.43;;;333.00;1689.60;;;;;;5119207;27;20118;-77
2022/02/18 10:04:47;;;;;;;16.45;9.90;;;332.90;1664.00;;;;;;5119398;27;20166;-77
2022/02/18 10:07:13;;;;;;;9.07;4.75;;;332.90;1664.00;;;;;;5119275;27;20019;-81
2022/02/18 10:09:44;;;;;;;7.43;3.60;;;333.00;1664.00;;;;;;5119200;27;20454;-81
2022/02/18 10:12:12;;;;;;;13.52;8.75;;;332.90;1664.00;;;;;;5118329;27;20027;-81
2022/02/18 10:14:58;;;;;;;23.52;14.00;;;332.90;1664.00;;;;;;5119216;27;20361;-78
2022/02/18 10:17:48;;;;;;;9.63;4.18;;;333.20;1638.40;;;;;;5158506;27;20049;-77
2022/02/18 10:20:18;;;;;;;14.70;8.98;;;333.20;1638.40;;;;;;5134686;27;20454;-78
2022/02/18 10:23:00;;;;;;;13.68;6.10;;;333.30;1638.40;;;;;;5119292;27;20023;-80
2022/02/18 10:25:45;;;;;;;11.50;5.25;;;333.40;1638.40;;;;;;5119549;27;20051;-77
2022/02/18 10:28:16;;;;;;;6.63;2.70;;;333.50;1638.40;;;;;;5137691;27;20075;-79
2022/02/18 10:30:42;;;;;;;19.88;7.90;;;333.50;1612.80;;;;;;5135930;27;20016;-79
2022/02/18 10:33:13;;;;;;;15.27;7.53;;;333.60;1612.80;;;;;;5118056;27;20035;-79
2022/02/18 10:35:40;;;;;;;8.43;2.58;;;333.70;1612.80;;;;;;5118513;27;20064;-81
2022/02/18 10:38:07;;;;;;;4.50;1.85;;;333.70;1587.20;;;;;;5118353;27;20026;-80
2022/02/18 10:40:46;;;;;;;14.30;7.95;;;333.70;1561.60;;;;;;5136716;27;20109;-79
2022/02/18 10:43:14;;;;;;;7.00;3.35;;;358.40;1612.80;;;;;;5136509;27;20530;-79
2022/02/18 10:46:02;;;;;;;8.90;3.30;;;358.40;1587.20;;;;;;5118437;27;20041;-80
2022/02/18 10:48:33;;;;;;;9.88;5.82;;;358.40;1587.20;;;;;;5097531;28;20039;-80
2022/02/18 10:51:19;;;;;;;8.63;3.88;;;358.50;1587.20;;;;;;5097575;28;20020;-79
2022/02/18 10:53:50;;;;;;;6.57;2.90;;;358.60;1587.20;;;;;;5116090;28;20024;-79
2022/02/18 10:56:20;;;;;;;23.30;13.52;;;358.70;1587.20;;;;;;5097831;28;20408;-80
2022/02/18 10:58:51;;;;;;;9.23;4.85;;;358.80;1561.60;;;;;;5097728;28;20016;-80
2022/02/18 11:01:21;;;;;;;9.23;4.68;;;358.80;1561.60;;;;;;5115527;28;20020;-78
2022/02/18 11:03:48;;;;;;;10.48;3.28;;;358.80;1536.00;;;;;;5107439;27;20023;-79
2022/02/18 11:06:20;;;;;;;12.70;5.53;;;358.80;1561.60;;;;;;5118135;27;20023;-78
2022/02/18 11:08:59;;;;;;;6.80;3.30;;;358.90;1536.00;;;;;;5136036;27;20020;-77
2022/02/18 11:11:43;;;;;;;7.68;3.78;;;359.00;1536.00;;;;;;5117839;27;20026;-78
2022/02/18 11:14:12;;;;;;;6.35;4.00;;;359.00;1536.00;;;;;;5136276;27;20042;-79
2022/02/18 11:16:42;;;;;;;12.48;6.78;;;359.10;1536.00;;;;;;5135682;27;20018;-79
2022/02/18 11:19:08;;;;;;;37.40;28.35;;;359.20;1510.40;;;;;;5117580;27;20015;-78
2022/02/18 11:21:34;;;;;;;15.90;10.38;;;384.00;1510.40;;;;;;5135927;27;20023;-78
2022/02/18 11:24:03;;;;;;;22.02;15.00;;;384.20;1536.00;;;;;;5135720;27;20019;-79
2022/02/18 11:26:31;;;;;;;9.43;4.13;;;384.40;1510.40;;;;;;5116765;27;20458;-78
2022/02/18 11:28:58;;;;;;;9.02;3.90;;;384.30;1510.40;;;;;;5117210;27;20461;-81
2022/02/18 11:31:43;;;;;;;7.25;3.40;;;384.30;1484.80;;;;;;5117545;27;20023;-81
2022/02/18 11:34:39;;;;;;;14.68;5.85;;;384.20;1484.80;;;;;;5117386;27;20019;-79
2022/02/18 11:37:08;;;;;;;19.55;10.40;;;384.40;1510.40;;;;;;5114647;27;20366;-77
2022/02/18 11:39:36;;;;;;;8.82;3.90;;;384.50;1510.40;;;;;;5135403;27;20019;-79
2022/02/18 11:42:02;;;;;;;10.23;3.88;;;384.70;1484.80;;;;;;5116777;27;20084;-78
2022/02/18 11:44:30;;;;;;;4.95;2.40;;;384.90;1484.80;;;;;;5116820;27;20042;-79
2022/02/18 11:47:20;;;;;;;7.57;3.08;;;409.70;1484.80;;;;;;5116915;27;20366;-78
2022/02/18 11:49:47;;;;;;;17.27;7.40;;;409.90;1484.80;;;;;;5135582;27;20024;-78
2022/02/18 11:52:16;;;;;;;16.17;8.77;;;410.30;1459.20;;;;;;5101676;28;20447;-79
2022/02/18 11:54:43;;;;;;;10.18;3.20;;;435.20;1459.20;;;;;;5114761;28;20012;-79
2022/02/18 11:57:13;;;;;;;20.58;13.02;;;410.40;1433.60;;;;;;5096384;28;20026;-77
2022/02/18 12:00:08;;;;;;;15.85;6.57;;;435.30;1433.60;;;;;;5096644;28;20024;-81
2022/02/18 12:02:41;;;;;;;17.92;8.98;;;435.60;1433.60;;;;;;5096548;28;20038;-81
2022/02/18 12:05:12;;;;;;;31.80;20.33;;;460.80;1459.20;;;;;;5096705;28;20560;-81
2022/02/18 12:07:42;;;;;;;15.40;6.88;;;461.00;1433.60;;;;;;5096672;28;20051;-81
2022/02/18 12:10:29;;;;;;;11.13;5.40;;;461.00;1408.00;;;;;;5114663;28;20026;-78
2022/02/18 12:13:04;;;;;;;12.35;5.35;;;461.20;1408.00;;;;;;5096287;28;20054;-79